地図

経路データ

SID SEASON NUMBER BASIN SUBBASIN NAME ISO_TIME NATURE LAT LON WMO_WIND WMO_PRES WMO_AGENCY TRACK_TYPE DIST2LAND LANDFALL IFLAG USA_AGENCY USA_ATCF_ID USA_LAT USA_LON USA_RECORD USA_STATUS USA_WIND USA_PRES USA_SSHS USA_R34_NE USA_R34_SE USA_R34_SW USA_R34_NW USA_R50_NE USA_R50_SE USA_R50_SW USA_R50_NW USA_R64_NE USA_R64_SE USA_R64_SW USA_R64_NW USA_POCI USA_ROCI USA_RMW USA_EYE TOKYO_LAT TOKYO_LON TOKYO_GRADE TOKYO_WIND TOKYO_PRES TOKYO_R50_DIR TOKYO_R50_LONG TOKYO_R50_SHORT TOKYO_R30_DIR TOKYO_R30_LONG TOKYO_R30_SHORT TOKYO_LAND CMA_LAT CMA_LON CMA_CAT CMA_WIND CMA_PRES HKO_LAT HKO_LON HKO_CAT HKO_WIND HKO_PRES NEWDELHI_LAT NEWDELHI_LON NEWDELHI_GRADE NEWDELHI_WIND NEWDELHI_PRES NEWDELHI_CI NEWDELHI_DP NEWDELHI_POCI REUNION_LAT REUNION_LON REUNION_TYPE REUNION_WIND REUNION_PRES REUNION_TNUM REUNION_CI REUNION_RMW REUNION_R34_NE REUNION_R34_SE REUNION_R34_SW REUNION_R34_NW REUNION_R50_NE REUNION_R50_SE REUNION_R50_SW REUNION_R50_NW REUNION_R64_NE REUNION_R64_SE REUNION_R64_SW REUNION_R64_NW BOM_LAT BOM_LON BOM_TYPE BOM_WIND BOM_PRES BOM_TNUM BOM_CI BOM_RMW BOM_R34_NE BOM_R34_SE BOM_R34_SW BOM_R34_NW BOM_R50_NE BOM_R50_SE BOM_R50_SW BOM_R50_NW BOM_R64_NE BOM_R64_SE BOM_R64_SW BOM_R64_NW BOM_ROCI BOM_POCI BOM_EYE BOM_POS_METHOD BOM_PRES_METHOD NADI_LAT NADI_LON NADI_CAT NADI_WIND NADI_PRES WELLINGTON_LAT WELLINGTON_LON WELLINGTON_WIND WELLINGTON_PRES DS824_LAT DS824_LON DS824_STAGE DS824_WIND DS824_PRES TD9636_LAT TD9636_LON TD9636_STAGE TD9636_WIND TD9636_PRES TD9635_LAT TD9635_LON TD9635_WIND TD9635_PRES TD9635_ROCI NEUMANN_LAT NEUMANN_LON NEUMANN_CLASS NEUMANN_WIND NEUMANN_PRES MLC_LAT MLC_LON MLC_CLASS MLC_WIND MLC_PRES USA_GUST BOM_GUST BOM_GUST_PER REUNION_GUST REUNION_GUST_PER USA_SEAHGT USA_SEARAD_NE USA_SEARAD_SE USA_SEARAD_SW USA_SEARAD_NW STORM_SPEED STORM_DIR
1984242N11309 1984 71 NA NA ARTHUR 1984-08-28 18:00:00 TS 10.5000 -51.0000 25 1010 hurdat_atl main 615 584 O_____________ hurdat_atl AL061984 10.5000 -51.0000 TD 25 1010 -1 15 270
1984242N11309 1984 71 NA NA ARTHUR 1984-08-28 21:00:00 TS 10.5027 -51.7375 main 584 548 P_____________ AL061984 10.5027 -51.7375 TD 25 1009 -1 15 270
1984242N11309 1984 71 NA NA ARTHUR 1984-08-29 00:00:00 TS 10.5000 -52.5000 25 1009 hurdat_atl main 548 526 O_____________ hurdat_atl AL061984 10.5000 -52.5000 TD 25 1009 -1 15 270
1984242N11309 1984 71 NA NA ARTHUR 1984-08-29 03:00:00 TS 10.5051 -53.2876 main 524 518 P_____________ AL061984 10.5051 -53.2876 TD 25 1008 -1 15 274
1984242N11309 1984 71 NA NA ARTHUR 1984-08-29 06:00:00 TS 10.6000 -54.0000 25 1008 hurdat_atl main 526 526 O_____________ hurdat_atl AL061984 10.6000 -54.0000 TD 25 1008 -1 13 286
1984242N11309 1984 71 NA NA ARTHUR 1984-08-29 09:00:00 TS 10.8623 -54.5524 main 560 560 P_____________ AL061984 10.8623 -54.5524 TD 30 1007 -1 12 301
1984242N11309 1984 71 NA NA ARTHUR 1984-08-29 12:00:00 TS 11.2000 -55.0000 35 1006 hurdat_atl main 566 556 O_____________ hurdat_atl AL061984 11.2000 -55.0000 TS 35 1006 0 11 306
1984242N11309 1984 71 NA NA ARTHUR 1984-08-29 15:00:00 TS 11.5000 -55.4375 main 556 548 P_____________ AL061984 11.5000 -55.4375 TS 40 1005 0 10 307
1984242N11309 1984 71 NA NA ARTHUR 1984-08-29 18:00:00 TS 11.8000 -55.8000 45 1004 hurdat_atl main 551 551 O_____________ hurdat_atl AL061984 11.8000 -55.8000 TS 45 1004 0 9 315
1984242N11309 1984 71 NA NA ARTHUR 1984-08-29 21:00:00 TS 12.0999 -56.0577 main 556 542 P_____________ AL061984 12.0999 -56.0577 TS 45 1004 0 8 321
1984242N11309 1984 71 NA NA ARTHUR 1984-08-30 00:00:00 TS 12.4000 -56.3000 45 1004 hurdat_atl main 546 524 O_____________ hurdat_atl AL061984 12.4000 -56.3000 TS 45 1004 0 9 316
1984242N11309 1984 71 NA NA ARTHUR 1984-08-30 03:00:00 TS 12.7151 -56.6574 main 519 506 P_____________ AL061984 12.7151 -56.6574 TS 42 1004 0 9 311
1984242N11309 1984 71 NA NA ARTHUR 1984-08-30 06:00:00 TS 13.0000 -57.0000 40 1005 hurdat_atl main 506 493 O_____________ hurdat_atl AL061984 13.0000 -57.0000 TS 40 1005 0 7 311
1984242N11309 1984 71 NA NA ARTHUR 1984-08-30 09:00:00 TS 13.1999 -57.2227 main 499 488 P_____________ AL061984 13.1999 -57.2227 TS 37 1005 0 6 316
1984242N11309 1984 71 NA NA ARTHUR 1984-08-30 12:00:00 TS 13.4000 -57.4000 35 1006 hurdat_atl main 494 492 O_____________ hurdat_atl AL061984 13.4000 -57.4000 TS 35 1006 0 6 323
1984242N11309 1984 71 NA NA ARTHUR 1984-08-30 15:00:00 TS 13.7000 -57.6149 main 499 499 P_____________ AL061984 13.7000 -57.6149 TS 35 1006 0 7 327
1984242N11309 1984 71 NA NA ARTHUR 1984-08-30 18:00:00 TS 14.0000 -57.8000 35 1007 hurdat_atl main 507 507 O_____________ hurdat_atl AL061984 14.0000 -57.8000 TS 35 1007 0 6 330
1984242N11309 1984 71 NA NA ARTHUR 1984-08-30 21:00:00 TS 14.2150 -57.9226 main 516 516 P_____________ AL061984 14.2150 -57.9226 TS 35 1008 0 4 334
1984242N11309 1984 71 NA NA ARTHUR 1984-08-31 00:00:00 TS 14.4000 -58.0000 35 1009 hurdat_atl main 527 527 O_____________ hurdat_atl AL061984 14.4000 -58.0000 TS 35 1009 0 4 341
1984242N11309 1984 71 NA NA ARTHUR 1984-08-31 03:00:00 TS 14.5925 -58.0575 main 538 538 P_____________ AL061984 14.5925 -58.0575 TS 35 1009 0 4 347
1984242N11309 1984 71 NA NA ARTHUR 1984-08-31 06:00:00 TS 14.8000 -58.1000 35 1009 hurdat_atl main 556 556 O_____________ hurdat_atl AL061984 14.8000 -58.1000 TS 35 1009 0 4 350
1984242N11309 1984 71 NA NA ARTHUR 1984-08-31 09:00:00 TS 15.0275 -58.1426 main 575 575 P_____________ AL061984 15.0275 -58.1426 TS 35 1009 0 5 349
1984242N11309 1984 71 NA NA ARTHUR 1984-08-31 12:00:00 TS 15.3000 -58.2000 35 1010 hurdat_atl main 597 597 O_____________ hurdat_atl AL061984 15.3000 -58.2000 TS 35 1010 0 6 347
1984242N11309 1984 71 NA NA ARTHUR 1984-08-31 15:00:00 TS 15.6350 -58.2925 main 621 621 P_____________ AL061984 15.6350 -58.2925 TS 32 1010 -1 7 345
1984242N11309 1984 71 NA NA ARTHUR 1984-08-31 18:00:00 TS 16.0000 -58.4000 30 1011 hurdat_atl main 656 656 O_____________ hurdat_atl AL061984 16.0000 -58.4000 TD 30 1011 -1 8 347
1984242N11309 1984 71 NA NA ARTHUR 1984-08-31 21:00:00 TS 16.3874 -58.4775 main 693 693 P_____________ AL061984 16.3874 -58.4775 TD 30 1011 -1 7 345
1984242N11309 1984 71 NA NA ARTHUR 1984-09-01 00:00:00 TS 16.7000 -58.6000 30 1011 hurdat_atl main 720 720 O_____________ hurdat_atl AL061984 16.7000 -58.6000 TD 30 1011 -1 6 325
1984242N11309 1984 71 NA NA ARTHUR 1984-09-01 03:00:00 TS 16.8450 -58.8126 main 723 704 P_____________ AL061984 16.8450 -58.8126 TD 30 1011 -1 5 293
1984242N11309 1984 71 NA NA ARTHUR 1984-09-01 06:00:00 TS 16.9000 -59.1000 30 1012 hurdat_atl main 704 673 O_____________ hurdat_atl AL061984 16.9000 -59.1000 TD 30 1012 -1 6 280
1984242N11309 1984 71 NA NA ARTHUR 1984-09-01 09:00:00 TS 16.9501 -59.4576 main 660 629 P_____________ AL061984 16.9501 -59.4576 TD 30 1011 -1 7 279
1984242N11309 1984 71 NA NA ARTHUR 1984-09-01 12:00:00 TS 17.0000 -59.8000 30 1011 hurdat_atl main 629 606 O_____________ hurdat_atl AL061984 17.0000 -59.8000 TD 30 1011 -1 6 283
1984242N11309 1984 71 NA NA ARTHUR 1984-09-01 15:00:00 TS 17.0774 -60.0226 main 606 582 P_____________ AL061984 17.0774 -60.0226 TD 27 1010 -1 4 298
1984242N11309 1984 71 NA NA ARTHUR 1984-09-01 18:00:00 TS 17.2000 -60.2000 25 1010 hurdat_atl main 582 557 O_____________ hurdat_atl AL061984 17.2000 -60.2000 TD 25 1010 -1 5 311
1984242N11309 1984 71 NA NA ARTHUR 1984-09-01 21:00:00 TS 17.3925 -60.4000 main 557 533 P_____________ AL061984 17.3925 -60.4000 TD 25 1010 -1 6 316
1984242N11309 1984 71 NA NA ARTHUR 1984-09-02 00:00:00 TS 17.6000 -60.6000 25 1010 hurdat_atl main 533 510 O_____________ hurdat_atl AL061984 17.6000 -60.6000 TD 25 1010 -1 5 313
1984242N11309 1984 71 NA NA ARTHUR 1984-09-02 03:00:00 TS 17.7575 -60.8150 main 509 487 P_____________ AL061984 17.7575 -60.8150 TD 25 1010 -1 5 308
1984242N11309 1984 71 NA NA ARTHUR 1984-09-02 06:00:00 TS 17.9000 -61.0000 25 1010 hurdat_atl main 487 476 O_____________ hurdat_atl AL061984 17.9000 -61.0000 TD 25 1010 -1 4 314
1984242N11309 1984 71 NA NA ARTHUR 1984-09-02 09:00:00 TS 18.0350 -61.1151 main 476 464 P_____________ AL061984 18.0350 -61.1151 TD 25 1010 -1 4 328
1984242N11309 1984 71 NA NA ARTHUR 1984-09-02 12:00:00 TS 18.2000 -61.2000 25 1010 hurdat_atl main 464 453 O_____________ hurdat_atl AL061984 18.2000 -61.2000 TD 25 1010 -1 5 339
1984242N11309 1984 71 NA NA ARTHUR 1984-09-02 15:00:00 TS 18.4575 -61.2850 main 453 443 P_____________ AL061984 18.4575 -61.2850 TD 27 1009 -1 5 339
1984242N11309 1984 71 NA NA ARTHUR 1984-09-02 18:00:00 TS 18.7000 -61.4000 30 1009 hurdat_atl main 444 423 O_____________ hurdat_atl AL061984 18.7000 -61.4000 TD 30 1009 -1 5 320
1984242N11309 1984 71 NA NA ARTHUR 1984-09-02 21:00:00 TS 18.8151 -61.6000 main 423 404 P_____________ AL061984 18.8151 -61.6000 TD 30 1008 -1 4 298
1984242N11309 1984 71 NA NA ARTHUR 1984-09-03 00:00:00 TS 18.9000 -61.8000 30 1008 hurdat_atl main 404 393 O_____________ hurdat_atl AL061984 18.9000 -61.8000 TD 30 1008 -1 4 307
1984242N11309 1984 71 NA NA ARTHUR 1984-09-03 03:00:00 TS 19.0425 -61.9150 main 395 387 P_____________ AL061984 19.0425 -61.9150 TD 30 1008 -1 4 328
1984242N11309 1984 71 NA NA ARTHUR 1984-09-03 06:00:00 TS 19.2000 -62.0000 30 1008 hurdat_atl main 389 381 O_____________ hurdat_atl AL061984 19.2000 -62.0000 TD 30 1008 -1 3 333
1984242N11309 1984 71 NA NA ARTHUR 1984-09-03 09:00:00 TS 19.3500 -62.0851 main 381 378 P_____________ AL061984 19.3500 -62.0851 TD 30 1009 -1 4 328
1984242N11309 1984 71 NA NA ARTHUR 1984-09-03 12:00:00 TS 19.5000 -62.2000 30 1010 hurdat_atl main 378 362 O_____________ hurdat_atl AL061984 19.5000 -62.2000 TD 30 1010 -1 4 315
1984242N11309 1984 71 NA NA ARTHUR 1984-09-03 15:00:00 TS 19.6425 -62.3925 main 362 351 P_____________ AL061984 19.6425 -62.3925 TD 30 1010 -1 5 309
1984242N11309 1984 71 NA NA ARTHUR 1984-09-03 18:00:00 TS 19.8000 -62.6000 30 1011 hurdat_atl main 351 342 O_____________ hurdat_atl AL061984 19.8000 -62.6000 TD 30 1011 -1 5 314
1984242N11309 1984 71 NA NA ARTHUR 1984-09-03 21:00:00 TS 19.9625 -62.7502 main 344 341 P_____________ AL061984 19.9625 -62.7502 TD 27 1011 -1 5 325
1984242N11309 1984 71 NA NA ARTHUR 1984-09-04 00:00:00 TS 20.2000 -62.9000 25 1012 hurdat_atl main 347 345 O_____________ hurdat_atl AL061984 20.2000 -62.9000 TD 25 1012 -1 7 334
1984242N11309 1984 71 NA NA ARTHUR 1984-09-04 03:00:00 TS 20.5699 -63.0701 main 359 359 P_____________ AL061984 20.5699 -63.0701 TD 25 1012 -1 9 335
1984242N11309 1984 71 NA NA ARTHUR 1984-09-04 06:00:00 TS 21.0000 -63.3000 25 1012 hurdat_atl main 377 377 O_____________ hurdat_atl AL061984 21.0000 -63.3000 TD 25 1012 -1 10 330
1984242N11309 1984 71 NA NA ARTHUR 1984-09-04 09:00:00 TS 21.4224 -63.6050 main 395 395 P_____________ AL061984 21.4224 -63.6050 TD 25 1012 -1 10 321
1984242N11309 1984 71 NA NA ARTHUR 1984-09-04 12:00:00 TS 21.8000 -64.0000 25 1013 hurdat_atl main 415 415 O_____________ hurdat_atl AL061984 21.8000 -64.0000 TD 25 1013 -1 10 309
1984242N11309 1984 71 NA NA ARTHUR 1984-09-04 15:00:00 TS 22.0725 -64.4777 main 429 426 P_____________ AL061984 22.0725 -64.4777 TD 25 1013 -1 11 298
1984242N11309 1984 71 NA NA ARTHUR 1984-09-04 18:00:00 TS 22.3000 -65.0000 25 1013 hurdat_atl main 440 439 O_____________ hurdat_atl AL061984 22.3000 -65.0000 TD 25 1013 -1 11 297
1984242N11309 1984 71 NA NA ARTHUR 1984-09-04 21:00:00 TS 22.5649 -65.5075 main 469 469 P_____________ AL061984 22.5649 -65.5075 TD 25 1013 -1 11 298
1984242N11309 1984 71 NA NA ARTHUR 1984-09-05 00:00:00 TS 22.8000 -66.0000 25 1014 hurdat_atl main 492 492 O_____________ hurdat_atl AL061984 22.8000 -66.0000 TD 25 1014 -1 9 292
1984242N11309 1984 71 NA NA ARTHUR 1984-09-05 03:00:00 TS 22.9197 -66.4508 main 496 488 P_____________ AL061984 22.9197 -66.4508 TD 25 1014 -1 9 290
1984242N11309 1984 71 NA NA ARTHUR 1984-09-05 06:00:00 TS 23.1000 -66.9000 25 1014 hurdat_atl main 492 487 O_____________ hurdat_atl AL061984 23.1000 -66.9000 TD 25 1014 -1 11 303
1984242N11309 1984 71 NA NA ARTHUR 1984-09-05 09:00:00 TS 23.4977 -67.4221 main 509 505 P_____________ AL061984 23.4977 -67.4221 TD 25 1014 -1 13 314
1984242N11309 1984 71 NA NA ARTHUR 1984-09-05 12:00:00 TS 24.0000 -67.9000 25 1014 hurdat_atl main 537 537 O_____________ hurdat_atl AL061984 24.0000 -67.9000 TD 25 1014 -1 13 323
1984242N11309 1984 71 NA NA ARTHUR 1984-09-05 15:00:00 TS 24.5049 -68.2426 main 578 575 P_____________ AL061984 24.5049 -68.2426 TD 25 1014 -1 11 331
1984242N11309 1984 71 NA NA ARTHUR 1984-09-05 18:00:00 TS 25.0000 -68.5000 25 1014 hurdat_atl main 620 O_____________ hurdat_atl AL061984 25.0000 -68.5000 TD 25 1014 -1 11 335

IBTrACS Databaseについて

本データベースは、米国NOAAが公開する1842年以降の世界の熱帯低気圧のベストトラックデータアーカイブInternational Best Track Archive for Climate Stewardship (IBTrACS)を、ウェブで閲覧しやすい形式に変換したものです。

最終更新日:2021-10-27